La Guera, Western Sahara
Current Conditions -  °F | °C
As of 5:00 PM on Wednesday 26 Nov 2014 (Local Time) from GQPP Reporting Station
Clear Clear  
Wind Chill: 79°   Ceiling: Unl
Heat Index: 79°   Visibility: 5mi
Dew Point: 55°   Wind: 18mph
Humidity: 44%   Direction: 10°N
Pressure: 29.97"   Gusts: NA
Location:  20.83°N, 17.1°W
Report Text: GQPP 261700Z 01016KT 8000 NSC 26/13 Q1015 NOSIG
Loading
Personal Weather Stations






























Interactive Weather Map New forecast layout! Learn more

10-Day Weather Forecast

Advertisements
Track Severe Weather on mobile